sensor_id;sensor_type;location;lat;lon;timestamp;temperature;humidity
14727;DHT22;7454;51.256;8.176;2024-01-30T00:03:35;4.90;80.90
14727;DHT22;7454;51.256;8.176;2024-01-30T00:10:35;4.90;81.10
14727;DHT22;7454;51.256;8.176;2024-01-30T00:17:36;4.90;81.00
14727;DHT22;7454;51.256;8.176;2024-01-30T00:24:35;4.80;80.60
14727;DHT22;7454;51.256;8.176;2024-01-30T00:31:34;4.60;80.50
14727;DHT22;7454;51.256;8.176;2024-01-30T00:43:07;4.70;80.60
14727;DHT22;7454;51.256;8.176;2024-01-30T00:50:06;4.60;80.80
14727;DHT22;7454;51.256;8.176;2024-01-30T00:57:05;4.70;80.80
14727;DHT22;7454;51.256;8.176;2024-01-30T01:04:04;4.70;80.80
14727;DHT22;7454;51.256;8.176;2024-01-30T01:11:03;4.70;80.90
14727;DHT22;7454;51.256;8.176;2024-01-30T01:18:02;4.60;80.80
14727;DHT22;7454;51.256;8.176;2024-01-30T01:25:03;4.60;80.90
14727;DHT22;7454;51.256;8.176;2024-01-30T01:32:05;4.50;80.30
14727;DHT22;7454;51.256;8.176;2024-01-30T01:43:38;4.30;80.30
14727;DHT22;7454;51.256;8.176;2024-01-30T01:50:38;4.20;80.30
14727;DHT22;7454;51.256;8.176;2024-01-30T01:57:37;4.30;80.60
14727;DHT22;7454;51.256;8.176;2024-01-30T02:04:37;4.30;80.70
14727;DHT22;7454;51.256;8.176;2024-01-30T02:11:36;4.20;80.80
14727;DHT22;7454;51.256;8.176;2024-01-30T02:18:39;4.10;80.30
14727;DHT22;7454;51.256;8.176;2024-01-30T02:25:44;4.10;80.40
14727;DHT22;7454;51.256;8.176;2024-01-30T02:32:44;4.00;80.40
14727;DHT22;7454;51.256;8.176;2024-01-30T02:48:58;4.30;80.50
14727;DHT22;7454;51.256;8.176;2024-01-30T02:55:57;4.10;80.20
14727;DHT22;7454;51.256;8.176;2024-01-30T03:02:56;3.90;80.00
14727;DHT22;7454;51.256;8.176;2024-01-30T03:09:55;3.90;80.40
14727;DHT22;7454;51.256;8.176;2024-01-30T03:16:55;4.00;80.70
14727;DHT22;7454;51.256;8.176;2024-01-30T03:23:54;4.10;80.80
14727;DHT22;7454;51.256;8.176;2024-01-30T03:30:53;4.20;81.00
14727;DHT22;7454;51.256;8.176;2024-01-30T03:37:52;4.30;80.80
14727;DHT22;7454;51.256;8.176;2024-01-30T03:48:55;4.20;80.40
14727;DHT22;7454;51.256;8.176;2024-01-30T03:55:54;4.10;80.20
14727;DHT22;7454;51.256;8.176;2024-01-30T04:02:53;4.00;80.40
14727;DHT22;7454;51.256;8.176;2024-01-30T04:09:52;4.00;80.10
14727;DHT22;7454;51.256;8.176;2024-01-30T04:16:51;3.90;80.10
14727;DHT22;7454;51.256;8.176;2024-01-30T04:23:50;3.80;80.20
14727;DHT22;7454;51.256;8.176;2024-01-30T04:30:50;3.70;80.10
14727;DHT22;7454;51.256;8.176;2024-01-30T04:37:49;3.60;79.90
14727;DHT22;7454;51.256;8.176;2024-01-30T04:48:56;3.50;79.90
14727;DHT22;7454;51.256;8.176;2024-01-30T04:55:55;3.50;80.10
14727;DHT22;7454;51.256;8.176;2024-01-30T05:02:55;3.60;80.70
14727;DHT22;7454;51.256;8.176;2024-01-30T05:09:54;3.70;80.20
14727;DHT22;7454;51.256;8.176;2024-01-30T05:16:53;3.50;79.90
14727;DHT22;7454;51.256;8.176;2024-01-30T05:23:52;3.40;80.10
14727;DHT22;7454;51.256;8.176;2024-01-30T05:30:51;3.30;80.00
14727;DHT22;7454;51.256;8.176;2024-01-30T05:37:50;3.30;80.00
14727;DHT22;7454;51.256;8.176;2024-01-30T05:44:50;3.20;79.90
14727;DHT22;7454;51.256;8.176;2024-01-30T05:51:49;3.20;79.90
14727;DHT22;7454;51.256;8.176;2024-01-30T05:58:48;3.30;80.20
14727;DHT22;7454;51.256;8.176;2024-01-30T06:05:48;3.30;80.00
14727;DHT22;7454;51.256;8.176;2024-01-30T06:12:47;3.20;79.90
14727;DHT22;7454;51.256;8.176;2024-01-30T06:19:46;3.10;80.00
14727;DHT22;7454;51.256;8.176;2024-01-30T06:26:46;3.20;79.90
14727;DHT22;7454;51.256;8.176;2024-01-30T06:33:49;3.20;80.30
14727;DHT22;7454;51.256;8.176;2024-01-30T06:45:22;3.40;80.10
14727;DHT22;7454;51.256;8.176;2024-01-30T06:52:21;3.30;79.90
14727;DHT22;7454;51.256;8.176;2024-01-30T06:59:20;3.20;80.30
14727;DHT22;7454;51.256;8.176;2024-01-30T07:06:19;3.30;80.10
14727;DHT22;7454;51.256;8.176;2024-01-30T07:13:19;3.20;79.90
14727;DHT22;7454;51.256;8.176;2024-01-30T07:20:18;3.10;79.80
14727;DHT22;7454;51.256;8.176;2024-01-30T07:27:18;3.20;80.80
14727;DHT22;7454;51.256;8.176;2024-01-30T07:34:18;3.40;80.40
14727;DHT22;7454;51.256;8.176;2024-01-30T07:45:51;3.40;80.10
14727;DHT22;7454;51.256;8.176;2024-01-30T07:52:50;3.40;80.10
14727;DHT22;7454;51.256;8.176;2024-01-30T07:59:53;3.70;80.80
14727;DHT22;7454;51.256;8.176;2024-01-30T08:06:52;3.70;80.70
14727;DHT22;7454;51.256;8.176;2024-01-30T08:13:54;3.90;80.40
14727;DHT22;7454;51.256;8.176;2024-01-30T08:20:54;3.90;80.30
14727;DHT22;7454;51.256;8.176;2024-01-30T08:27:53;4.00;80.70
14727;DHT22;7454;51.256;8.176;2024-01-30T08:34:53;4.20;81.60
14727;DHT22;7454;51.256;8.176;2024-01-30T08:46:24;5.00;84.30
14727;DHT22;7454;51.256;8.176;2024-01-30T08:53:23;5.20;82.20
14727;DHT22;7454;51.256;8.176;2024-01-30T09:00:23;5.50;84.10
14727;DHT22;7454;51.256;8.176;2024-01-30T09:07:22;5.80;84.50
14727;DHT22;7454;51.256;8.176;2024-01-30T09:14:21;6.00;84.40
14727;DHT22;7454;51.256;8.176;2024-01-30T09:21:20;6.30;85.30
14727;DHT22;7454;51.256;8.176;2024-01-30T09:28:19;6.60;85.10
14727;DHT22;7454;51.256;8.176;2024-01-30T09:35:18;6.80;84.60
14727;DHT22;7454;51.256;8.176;2024-01-30T09:46:51;7.10;84.40
14727;DHT22;7454;51.256;8.176;2024-01-30T09:53:50;7.30;84.40
14727;DHT22;7454;51.256;8.176;2024-01-30T10:00:53;7.40;83.80
14727;DHT22;7454;51.256;8.176;2024-01-30T10:07:53;7.60;84.00
14727;DHT22;7454;51.256;8.176;2024-01-30T10:14:56;7.70;84.00
14727;DHT22;7454;51.256;8.176;2024-01-30T10:21:54;7.90;83.50
14727;DHT22;7454;51.256;8.176;2024-01-30T10:28:53;8.00;83.40
14727;DHT22;7454;51.256;8.176;2024-01-30T10:35:54;8.10;83.30
14727;DHT22;7454;51.256;8.176;2024-01-30T10:47:30;8.40;82.90
14727;DHT22;7454;51.256;8.176;2024-01-30T10:54:28;8.70;82.70
14727;DHT22;7454;51.256;8.176;2024-01-30T11:01:28;8.70;82.50
14727;DHT22;7454;51.256;8.176;2024-01-30T11:08:28;8.80;82.40
14727;DHT22;7454;51.256;8.176;2024-01-30T11:15:27;8.90;82.50
14727;DHT22;7454;51.256;8.176;2024-01-30T11:22:27;8.90;82.10
14727;DHT22;7454;51.256;8.176;2024-01-30T11:29:29;9.00;82.30
14727;DHT22;7454;51.256;8.176;2024-01-30T11:36:29;9.00;81.90
14727;DHT22;7454;51.256;8.176;2024-01-30T11:48:03;9.20;81.80
14727;DHT22;7454;51.256;8.176;2024-01-30T11:55:03;9.20;81.60
14727;DHT22;7454;51.256;8.176;2024-01-30T12:02:02;9.20;81.60
14727;DHT22;7454;51.256;8.176;2024-01-30T12:09:02;9.30;81.70
14727;DHT22;7454;51.256;8.176;2024-01-30T12:16:07;9.40;81.60
14727;DHT22;7454;51.256;8.176;2024-01-30T12:23:06;9.50;81.60
14727;DHT22;7454;51.256;8.176;2024-01-30T12:30:09;9.40;81.40
14727;DHT22;7454;51.256;8.176;2024-01-30T12:37:09;9.30;81.30
14727;DHT22;7454;51.256;8.176;2024-01-30T12:48:44;9.30;81.40
14727;DHT22;7454;51.256;8.176;2024-01-30T12:55:44;9.30;81.40
14727;DHT22;7454;51.256;8.176;2024-01-30T13:02:43;9.30;81.50
14727;DHT22;7454;51.256;8.176;2024-01-30T13:09:43;9.40;81.40
14727;DHT22;7454;51.256;8.176;2024-01-30T13:16:43;9.40;81.40
14727;DHT22;7454;51.256;8.176;2024-01-30T13:23:42;9.40;81.30
14727;DHT22;7454;51.256;8.176;2024-01-30T13:30:42;9.50;81.40
14727;DHT22;7454;51.256;8.176;2024-01-30T13:37:41;9.60;81.30
14727;DHT22;7454;51.256;8.176;2024-01-30T13:49:15;9.80;81.20
14727;DHT22;7454;51.256;8.176;2024-01-30T13:56:13;9.90;81.00
14727;DHT22;7454;51.256;8.176;2024-01-30T14:03:13;9.90;80.80
14727;DHT22;7454;51.256;8.176;2024-01-30T14:10:12;9.90;80.80
14727;DHT22;7454;51.256;8.176;2024-01-30T14:17:12;10.00;80.80
14727;DHT22;7454;51.256;8.176;2024-01-30T14:24:10;10.00;80.80
14727;DHT22;7454;51.256;8.176;2024-01-30T14:31:11;10.00;80.80
14727;DHT22;7454;51.256;8.176;2024-01-30T14:38:09;10.00;80.80
14727;DHT22;7454;51.256;8.176;2024-01-30T14:49:43;9.90;80.80
14727;DHT22;7454;51.256;8.176;2024-01-30T14:56:43;9.90;80.80
14727;DHT22;7454;51.256;8.176;2024-01-30T15:03:42;9.90;80.90
14727;DHT22;7454;51.256;8.176;2024-01-30T15:10:43;9.90;80.90
14727;DHT22;7454;51.256;8.176;2024-01-30T15:17:42;9.80;80.90
14727;DHT22;7454;51.256;8.176;2024-01-30T15:24:43;9.80;81.00
14727;DHT22;7454;51.256;8.176;2024-01-30T15:31:41;9.70;81.10
14727;DHT22;7454;51.256;8.176;2024-01-30T15:38:41;9.60;81.20
14727;DHT22;7454;51.256;8.176;2024-01-30T15:50:15;9.50;81.30
14727;DHT22;7454;51.256;8.176;2024-01-30T15:57:14;9.50;81.30
14727;DHT22;7454;51.256;8.176;2024-01-30T16:04:12;9.50;81.40
14727;DHT22;7454;51.256;8.176;2024-01-30T16:11:11;9.60;81.40
14727;DHT22;7454;51.256;8.176;2024-01-30T16:18:12;9.60;81.50
14727;DHT22;7454;51.256;8.176;2024-01-30T16:25:12;9.60;81.50
14727;DHT22;7454;51.256;8.176;2024-01-30T16:32:13;9.60;81.60
14727;DHT22;7454;51.256;8.176;2024-01-30T16:39:12;9.60;81.70
14727;DHT22;7454;51.256;8.176;2024-01-30T16:50:44;9.50;81.70
14727;DHT22;7454;51.256;8.176;2024-01-30T16:57:44;9.50;81.80
14727;DHT22;7454;51.256;8.176;2024-01-30T17:04:44;9.50;81.80
14727;DHT22;7454;51.256;8.176;2024-01-30T17:11:44;9.50;81.80
14727;DHT22;7454;51.256;8.176;2024-01-30T17:18:43;9.50;81.80
14727;DHT22;7454;51.256;8.176;2024-01-30T17:25:42;9.50;81.80
14727;DHT22;7454;51.256;8.176;2024-01-30T17:32:41;9.50;81.80
14727;DHT22;7454;51.256;8.176;2024-01-30T17:39:40;9.50;81.80
14727;DHT22;7454;51.256;8.176;2024-01-30T17:51:15;9.50;81.80
14727;DHT22;7454;51.256;8.176;2024-01-30T17:58:14;9.50;81.80
14727;DHT22;7454;51.256;8.176;2024-01-30T18:05:13;9.60;81.80
14727;DHT22;7454;51.256;8.176;2024-01-30T18:12:13;9.60;81.70
14727;DHT22;7454;51.256;8.176;2024-01-30T18:19:14;9.60;81.50
14727;DHT22;7454;51.256;8.176;2024-01-30T18:26:13;9.60;81.40
14727;DHT22;7454;51.256;8.176;2024-01-30T18:33:16;9.50;81.00
14727;DHT22;7454;51.256;8.176;2024-01-30T18:40:17;9.30;80.40
14727;DHT22;7454;51.256;8.176;2024-01-30T18:51:49;9.00;79.70
14727;DHT22;7454;51.256;8.176;2024-01-30T18:58:51;8.90;79.60
14727;DHT22;7454;51.256;8.176;2024-01-30T19:05:51;8.80;79.40
14727;DHT22;7454;51.256;8.176;2024-01-30T19:12:52;8.60;79.30
14727;DHT22;7454;51.256;8.176;2024-01-30T19:19:50;8.60;79.20
14727;DHT22;7454;51.256;8.176;2024-01-30T19:26:50;8.60;79.30
14727;DHT22;7454;51.256;8.176;2024-01-30T19:33:51;8.50;79.10
14727;DHT22;7454;51.256;8.176;2024-01-30T19:40:50;8.40;79.00
14727;DHT22;7454;51.256;8.176;2024-01-30T19:52:24;8.30;79.00
14727;DHT22;7454;51.256;8.176;2024-01-30T19:59:23;8.30;79.00
14727;DHT22;7454;51.256;8.176;2024-01-30T20:06:21;8.20;79.00
14727;DHT22;7454;51.256;8.176;2024-01-30T20:13:21;8.20;78.70
14727;DHT22;7454;51.256;8.176;2024-01-30T20:20:21;8.00;78.70
14727;DHT22;7454;51.256;8.176;2024-01-30T20:27:20;8.00;78.70
14727;DHT22;7454;51.256;8.176;2024-01-30T20:34:20;8.00;78.50
14727;DHT22;7454;51.256;8.176;2024-01-30T20:41:19;7.90;78.40
14727;DHT22;7454;51.256;8.176;2024-01-30T20:52:51;7.90;78.50
14727;DHT22;7454;51.256;8.176;2024-01-30T20:59:50;7.90;78.50
14727;DHT22;7454;51.256;8.176;2024-01-30T21:06:49;7.90;78.50
14727;DHT22;7454;51.256;8.176;2024-01-30T21:13:48;7.90;78.50
14727;DHT22;7454;51.256;8.176;2024-01-30T21:20:49;7.90;78.60
14727;DHT22;7454;51.256;8.176;2024-01-30T21:27:49;7.90;78.50
14727;DHT22;7454;51.256;8.176;2024-01-30T21:34:48;7.80;78.60
14727;DHT22;7454;51.256;8.176;2024-01-30T21:41:47;7.80;78.70
14727;DHT22;7454;51.256;8.176;2024-01-30T21:53:19;7.80;78.80
14727;DHT22;7454;51.256;8.176;2024-01-30T22:00:18;7.70;78.90
14727;DHT22;7454;51.256;8.176;2024-01-30T22:07:17;7.70;79.00
14727;DHT22;7454;51.256;8.176;2024-01-30T22:14:16;7.70;79.20
14727;DHT22;7454;51.256;8.176;2024-01-30T22:21:15;7.60;79.30
14727;DHT22;7454;51.256;8.176;2024-01-30T22:28:14;7.50;79.20
14727;DHT22;7454;51.256;8.176;2024-01-30T22:35:13;7.50;79.30
14727;DHT22;7454;51.256;8.176;2024-01-30T22:42:12;7.50;79.40
14727;DHT22;7454;51.256;8.176;2024-01-30T22:53:45;7.40;79.30
14727;DHT22;7454;51.256;8.176;2024-01-30T23:00:46;7.50;79.20
14727;DHT22;7454;51.256;8.176;2024-01-30T23:07:45;7.40;79.10
14727;DHT22;7454;51.256;8.176;2024-01-30T23:14:46;7.40;79.10
14727;DHT22;7454;51.256;8.176;2024-01-30T23:21:45;7.30;79.10
14727;DHT22;7454;51.256;8.176;2024-01-30T23:28:44;7.20;79.30
14727;DHT22;7454;51.256;8.176;2024-01-30T23:31:13;7.20;79.60
14727;DHT22;7454;51.256;8.176;2024-01-30T23:33:39;7.20;79.70
14727;DHT22;7454;51.256;8.176;2024-01-30T23:36:04;7.30;79.80
14727;DHT22;7454;51.256;8.176;2024-01-30T23:38:30;7.20;79.80
14727;DHT22;7454;51.256;8.176;2024-01-30T23:40:56;7.30;79.80
14727;DHT22;7454;51.256;8.176;2024-01-30T23:43:22;7.30;79.80
14727;DHT22;7454;51.256;8.176;2024-01-30T23:45:48;7.30;79.80
14727;DHT22;7454;51.256;8.176;2024-01-30T23:48:14;7.30;79.70
14727;DHT22;7454;51.256;8.176;2024-01-30T23:50:39;7.20;79.70
14727;DHT22;7454;51.256;8.176;2024-01-30T23:53:05;7.20;79.70
14727;DHT22;7454;51.256;8.176;2024-01-30T23:55:31;7.30;79.70
14727;DHT22;7454;51.256;8.176;2024-01-30T23:57:57;7.20;79.70
